createdAt,value
2018-09-27T00:02:01.983Z,61.60
2018-09-27T00:04:31.064Z,62.90
2018-09-27T00:07:00.152Z,65.50
2018-09-27T00:09:29.296Z,65.20
2018-09-27T00:11:58.351Z,64.90
2018-09-27T00:14:27.452Z,65.40
2018-09-27T00:16:56.536Z,66.10
2018-09-27T00:19:25.662Z,65.80
2018-09-27T00:21:54.791Z,65.00
2018-09-27T00:24:23.823Z,65.30
2018-09-27T00:26:52.775Z,64.10
2018-09-27T00:29:21.921Z,63.80
2018-09-27T00:31:50.994Z,63.00
2018-09-27T00:34:20.229Z,63.80
2018-09-27T00:36:49.167Z,66.10
2018-09-27T00:39:18.164Z,68.30
2018-09-27T00:41:47.195Z,69.50
2018-09-27T00:44:16.175Z,70.90
2018-09-27T00:46:45.171Z,70.00
2018-09-27T00:49:14.128Z,69.10
2018-09-27T00:51:43.249Z,69.20
2018-09-27T00:54:12.242Z,69.50
2018-09-27T00:56:41.200Z,69.00
2018-09-27T00:59:10.253Z,68.30
2018-09-27T01:01:39.217Z,67.60
2018-09-27T01:04:08.424Z,67.20
2018-09-27T01:06:37.503Z,67.20
2018-09-27T01:09:08.272Z,66.80
2018-09-27T01:11:37.391Z,67.80
2018-09-27T01:14:06.413Z,68.30
2018-09-27T01:16:35.504Z,68.90
2018-09-27T01:19:04.731Z,67.60
2018-09-27T01:21:33.927Z,68.30
2018-09-27T01:24:03.035Z,68.50
2018-09-27T01:26:32.108Z,67.60
2018-09-27T01:29:01.103Z,67.60
2018-09-27T01:31:30.176Z,68.60
2018-09-27T01:33:59.191Z,67.40
2018-09-27T01:36:28.228Z,67.70
2018-09-27T01:38:57.254Z,69.20
2018-09-27T01:41:26.263Z,69.80
2018-09-27T01:43:55.256Z,69.70
2018-09-27T01:46:24.343Z,70.50
2018-09-27T01:48:53.484Z,70.50
2018-09-27T01:51:22.536Z,70.10
2018-09-27T01:53:51.636Z,70.70
2018-09-27T01:56:20.738Z,71.10
2018-09-27T01:58:50.139Z,70.90
2018-09-27T02:01:19.284Z,71.10
2018-09-27T02:03:48.504Z,69.80
2018-09-27T02:06:17.508Z,70.70
2018-09-27T02:08:46.587Z,71.10
2018-09-27T02:11:15.684Z,71.20
2018-09-27T02:13:44.829Z,74.70
2018-09-27T02:16:13.882Z,76.00
2018-09-27T02:18:42.968Z,77.30
2018-09-27T02:21:11.958Z,78.20
2018-09-27T02:23:40.946Z,78.00
2018-09-27T02:26:10.001Z,77.40
2018-09-27T02:28:39.060Z,77.00
2018-09-27T02:31:08.009Z,76.00
2018-09-27T02:33:37.014Z,76.80
2018-09-27T02:36:06.116Z,75.10
2018-09-27T02:38:35.248Z,76.60
2018-09-27T02:41:04.309Z,76.90
2018-09-27T02:43:33.396Z,76.80
2018-09-27T02:46:02.492Z,76.80
2018-09-27T02:48:31.582Z,76.90
2018-09-27T02:51:00.833Z,76.20
2018-09-27T02:53:29.776Z,77.00
2018-09-27T02:55:58.757Z,76.80
2018-09-27T02:58:27.970Z,78.70
2018-09-27T03:00:57.088Z,78.70
2018-09-27T03:03:26.203Z,78.10
2018-09-27T03:05:55.258Z,78.90
2018-09-27T03:08:24.224Z,79.60
2018-09-27T03:10:53.552Z,79.70
2018-09-27T03:13:22.709Z,79.90
2018-09-27T03:15:51.931Z,80.30
2018-09-27T03:18:21.291Z,80.20
2018-09-27T03:20:50.363Z,81.30
2018-09-27T03:23:19.328Z,81.30
2018-09-27T03:25:48.317Z,81.30
2018-09-27T03:28:17.467Z,82.70
2018-09-27T03:30:46.504Z,82.40
2018-09-27T03:33:15.624Z,82.70
2018-09-27T03:35:44.579Z,84.10
2018-09-27T03:38:13.792Z,84.40
2018-09-27T03:40:42.981Z,84.80
2018-09-27T03:43:11.988Z,85.10
2018-09-27T03:45:41.087Z,86.20
2018-09-27T03:48:10.176Z,86.20
2018-09-27T03:50:39.344Z,86.10
2018-09-27T03:53:08.500Z,87.40
2018-09-27T03:55:37.540Z,87.20
2018-09-27T03:58:06.562Z,85.60
2018-09-27T04:00:35.719Z,86.10
2018-09-27T04:03:04.902Z,85.00
2018-09-27T04:05:33.974Z,83.90
2018-09-27T04:08:03.001Z,86.10
2018-09-27T04:10:32.110Z,86.60
2018-09-27T04:13:01.323Z,86.00
2018-09-27T04:15:30.430Z,87.80
2018-09-27T04:17:59.560Z,85.80
2018-09-27T04:20:28.696Z,87.10
2018-09-27T04:22:57.819Z,86.00
2018-09-27T04:25:27.004Z,87.20
2018-09-27T04:27:56.204Z,87.00
2018-09-27T04:30:25.242Z,86.90
2018-09-27T04:32:54.809Z,87.60
2018-09-27T04:35:23.899Z,88.20
2018-09-27T04:37:52.990Z,89.10
2018-09-27T04:40:22.108Z,88.70
2018-09-27T04:42:51.220Z,90.30
2018-09-27T04:45:20.379Z,91.30
2018-09-27T04:47:49.580Z,92.90
2018-09-27T04:50:18.663Z,93.10
2018-09-27T04:52:47.768Z,91.30
2018-09-27T04:55:16.787Z,91.20
2018-09-27T04:57:45.959Z,91.30
2018-09-27T05:00:15.032Z,91.60
2018-09-27T05:02:44.349Z,91.20
2018-09-27T05:05:13.548Z,90.40
2018-09-27T05:07:42.782Z,89.90
2018-09-27T05:10:11.839Z,90.80
2018-09-27T05:12:40.921Z,91.60
2018-09-27T05:15:10.152Z,90.70
2018-09-27T05:17:39.234Z,91.40
2018-09-27T05:20:08.332Z,91.50
2018-09-27T05:22:37.401Z,91.80
2018-09-27T05:25:06.598Z,91.70
2018-09-27T05:27:35.627Z,91.30
2018-09-27T05:30:04.906Z,91.00
2018-09-27T05:32:33.719Z,90.50
2018-09-27T05:35:02.503Z,90.00
2018-09-27T05:37:31.584Z,90.50
2018-09-27T05:40:00.347Z,91.40
2018-09-27T05:42:29.458Z,90.40
2018-09-27T05:44:58.608Z,90.30
2018-09-27T05:47:27.613Z,90.20
2018-09-27T05:49:56.795Z,90.30
2018-09-27T05:52:25.742Z,91.10
2018-09-27T05:54:54.721Z,89.70
2018-09-27T05:57:23.785Z,89.20
2018-09-27T05:59:52.913Z,90.10
2018-09-27T06:02:21.885Z,87.70
2018-09-27T06:04:50.997Z,89.50
2018-09-27T06:07:20.107Z,89.20
2018-09-27T06:09:49.201Z,89.20
2018-09-27T06:12:18.182Z,89.50
2018-09-27T06:14:47.188Z,90.30
2018-09-27T06:17:16.162Z,90.20
2018-09-27T06:19:45.264Z,91.10
2018-09-27T06:22:14.508Z,90.60
2018-09-27T06:24:43.649Z,90.90
2018-09-27T06:27:12.731Z,91.60
2018-09-27T06:29:41.764Z,91.10
2018-09-27T06:32:10.761Z,91.70
2018-09-27T06:34:39.876Z,91.10
2018-09-27T06:37:08.917Z,91.20
2018-09-27T06:39:38.016Z,91.00
2018-09-27T06:42:07.102Z,91.30
2018-09-27T06:44:36.181Z,91.20
2018-09-27T06:47:05.231Z,92.10
2018-09-27T06:49:34.395Z,92.00
2018-09-27T06:52:03.400Z,93.00
2018-09-27T06:54:32.474Z,93.60
2018-09-27T06:57:01.581Z,92.70
2018-09-27T06:59:30.581Z,93.80
2018-09-27T07:01:59.661Z,94.00
2018-09-27T07:04:28.756Z,94.10
2018-09-27T07:06:57.822Z,94.80
2018-09-27T07:09:26.880Z,95.50
2018-09-27T07:11:55.931Z,96.00
2018-09-27T07:14:25.065Z,96.60
2018-09-27T07:16:54.133Z,96.90
2018-09-27T07:19:23.214Z,96.80
2018-09-27T07:21:52.334Z,97.30
2018-09-27T07:24:21.455Z,97.20
2018-09-27T07:26:50.760Z,97.00
2018-09-27T07:29:19.793Z,97.00
2018-09-27T07:31:48.905Z,96.50
2018-09-27T07:34:17.996Z,96.20
2018-09-27T07:36:47.024Z,96.60
2018-09-27T07:39:16.084Z,97.00
2018-09-27T07:41:45.056Z,97.10
2018-09-27T07:44:14.055Z,96.70
2018-09-27T07:46:43.147Z,96.30
2018-09-27T07:49:12.385Z,96.40
2018-09-27T07:51:41.567Z,96.40
2018-09-27T07:54:10.676Z,96.50
2018-09-27T07:56:39.763Z,96.70
2018-09-27T07:59:08.938Z,96.30
2018-09-27T08:01:38.047Z,96.70
2018-09-27T08:04:07.151Z,96.80
2018-09-27T08:06:36.106Z,95.90
2018-09-27T08:09:06.641Z,95.30
2018-09-27T08:11:36.025Z,93.90
2018-09-27T08:14:05.184Z,94.00
2018-09-27T08:16:34.236Z,94.60
2018-09-27T08:19:03.333Z,94.30
2018-09-27T08:21:32.410Z,94.10
2018-09-27T08:24:01.415Z,92.40
2018-09-27T08:26:30.594Z,92.10
2018-09-27T08:28:59.725Z,91.50
2018-09-27T08:31:28.794Z,90.80
2018-09-27T08:33:57.896Z,90.40
2018-09-27T08:36:27.000Z,90.10
2018-09-27T08:38:56.237Z,90.70
2018-09-27T08:41:25.397Z,90.30
2018-09-27T08:43:54.484Z,88.10
2018-09-27T08:46:23.584Z,87.50
2018-09-27T08:48:52.773Z,86.90
2018-09-27T08:51:21.976Z,87.80
2018-09-27T08:53:51.093Z,86.30
2018-09-27T08:56:20.229Z,86.70
2018-09-27T08:58:49.280Z,86.90
2018-09-27T09:01:18.355Z,84.00
2018-09-27T09:03:47.488Z,84.10
2018-09-27T09:06:16.545Z,83.60
2018-09-27T09:08:45.648Z,82.30
2018-09-27T09:11:14.737Z,82.60
2018-09-27T09:13:43.858Z,80.20
2018-09-27T09:16:12.968Z,80.20
2018-09-27T09:18:42.124Z,83.40
2018-09-27T09:21:11.341Z,82.70
2018-09-27T09:23:40.427Z,81.40
2018-09-27T09:26:09.465Z,81.80
2018-09-27T09:28:38.597Z,81.00
2018-09-27T09:31:07.905Z,78.60
2018-09-27T09:33:36.944Z,80.10
2018-09-27T09:36:06.054Z,80.00
2018-09-27T09:38:35.107Z,77.70
2018-09-27T09:41:04.216Z,78.00
2018-09-27T09:43:33.164Z,77.20
2018-09-27T09:46:02.312Z,78.00
2018-09-27T09:48:31.279Z,77.50
2018-09-27T09:51:00.252Z,76.80
2018-09-27T09:53:29.360Z,76.40
2018-09-27T09:55:58.360Z,77.00
2018-09-27T09:58:27.360Z,76.70
2018-09-27T10:00:56.349Z,73.10
2018-09-27T10:03:25.335Z,73.00
2018-09-27T10:05:54.319Z,74.30
2018-09-27T10:08:23.416Z,74.50
2018-09-27T10:10:52.500Z,72.10
2018-09-27T10:13:21.583Z,72.10
2018-09-27T10:15:50.870Z,71.30
2018-09-27T10:18:20.246Z,69.10
2018-09-27T10:20:49.300Z,70.70
2018-09-27T10:23:18.381Z,71.50
2018-09-27T10:25:47.369Z,72.00
2018-09-27T10:28:16.369Z,73.00
2018-09-27T10:30:45.400Z,71.90
2018-09-27T10:33:14.438Z,68.50
2018-09-27T10:35:43.554Z,67.10
2018-09-27T10:38:12.541Z,66.60
2018-09-27T10:40:41.632Z,66.80
2018-09-27T10:43:10.873Z,67.40
2018-09-27T10:45:39.952Z,68.70
2018-09-27T10:48:08.930Z,68.50
2018-09-27T10:50:37.921Z,69.70
2018-09-27T10:53:07.685Z,67.90
2018-09-27T10:55:36.892Z,70.10
2018-09-27T10:58:05.501Z,66.60
2018-09-27T11:00:34.520Z,61.80
2018-09-27T11:03:03.693Z,64.40
2018-09-27T11:05:32.723Z,62.80
2018-09-27T11:08:01.730Z,62.30
2018-09-27T11:10:30.772Z,63.70
2018-09-27T11:12:59.740Z,61.30
2018-09-27T11:15:29.064Z,60.70
2018-09-27T11:17:58.155Z,62.10
2018-09-27T11:20:27.281Z,60.50
2018-09-27T11:22:56.972Z,59.80
2018-09-27T11:25:25.953Z,59.50
2018-09-27T11:27:55.072Z,59.10
2018-09-27T11:30:30.967Z,59.50
2018-09-27T11:33:00.068Z,59.00
2018-09-27T11:35:29.163Z,59.40
2018-09-27T11:37:58.342Z,59.90
2018-09-27T11:40:27.484Z,58.60
2018-09-27T11:42:56.690Z,59.50
2018-09-27T11:45:25.791Z,58.60
2018-09-27T11:47:54.863Z,58.30
2018-09-27T11:50:24.189Z,57.30
2018-09-27T11:52:53.260Z,56.10
2018-09-27T11:55:22.359Z,55.70
2018-09-27T11:57:51.456Z,55.30
2018-09-27T12:00:20.478Z,56.20
2018-09-27T12:02:49.775Z,56.10
2018-09-27T12:05:18.837Z,56.30
2018-09-27T12:07:47.828Z,55.20
2018-09-27T12:10:16.916Z,55.10
2018-09-27T12:12:45.977Z,56.10
2018-09-27T12:15:15.169Z,55.40
2018-09-27T12:17:44.411Z,56.10
2018-09-27T12:20:13.503Z,55.50
2018-09-27T12:22:42.616Z,55.30
2018-09-27T12:25:11.701Z,54.50
2018-09-27T12:27:40.783Z,54.10
2018-09-27T12:30:09.781Z,53.50
2018-09-27T12:32:38.775Z,53.50
2018-09-27T12:35:07.877Z,52.50
2018-09-27T12:37:36.979Z,52.50
2018-09-27T12:40:06.300Z,52.50
2018-09-27T12:42:35.422Z,52.20
2018-09-27T12:45:04.529Z,51.40
2018-09-27T12:47:33.582Z,50.30
2018-09-27T12:50:02.551Z,49.50
2018-09-27T12:52:31.814Z,50.30
2018-09-27T12:55:00.867Z,50.00
2018-09-27T12:57:29.815Z,49.50
2018-09-27T12:59:58.930Z,49.90
2018-09-27T13:02:28.126Z,49.20
2018-09-27T13:04:57.269Z,49.30
2018-09-27T13:07:26.421Z,48.80
2018-09-27T13:09:55.633Z,48.70
2018-09-27T13:12:24.776Z,48.90
2018-09-27T13:14:53.859Z,48.50
2018-09-27T13:17:22.950Z,47.60
2018-09-27T13:19:52.016Z,47.30
2018-09-27T13:22:21.119Z,48.50
2018-09-27T13:24:50.224Z,47.70
2018-09-27T13:27:19.385Z,47.00
2018-09-27T13:29:48.633Z,47.10
2018-09-27T13:32:17.868Z,46.00
2018-09-27T13:34:46.989Z,45.80
2018-09-27T13:37:16.170Z,45.50
2018-09-27T13:39:45.269Z,45.20
2018-09-27T13:42:14.287Z,44.70
2018-09-27T13:44:43.334Z,45.00
2018-09-27T13:47:12.541Z,45.50
2018-09-27T13:49:41.720Z,45.60
2018-09-27T13:52:10.829Z,44.80
2018-09-27T13:54:39.880Z,44.40
2018-09-27T13:57:08.952Z,45.30
2018-09-27T13:59:38.012Z,43.90
2018-09-27T14:02:07.126Z,44.30
2018-09-27T14:04:36.372Z,44.50
2018-09-27T14:07:04.454Z,45.30
2018-09-27T14:09:32.722Z,45.00
2018-09-27T14:12:01.864Z,46.30
2018-09-27T14:14:30.117Z,44.50
2018-09-27T14:16:58.225Z,44.60
2018-09-27T14:19:27.340Z,45.10
2018-09-27T14:21:55.635Z,45.60
2018-09-27T14:24:23.951Z,45.60
2018-09-27T14:26:52.080Z,44.50
2018-09-27T14:29:20.243Z,44.70
2018-09-27T14:31:48.345Z,45.00
2018-09-27T14:34:17.379Z,45.00
2018-09-27T14:36:46.367Z,44.80
2018-09-27T14:39:15.450Z,44.70
2018-09-27T14:41:44.461Z,45.20
2018-09-27T14:44:13.449Z,44.40
2018-09-27T14:46:42.495Z,44.10
2018-09-27T14:49:11.540Z,44.50
2018-09-27T14:51:40.500Z,44.80
2018-09-27T14:54:09.513Z,44.70
2018-09-27T14:56:38.771Z,45.10
2018-09-27T14:59:08.007Z,45.20
2018-09-27T15:01:36.982Z,45.00
2018-09-27T15:04:06.504Z,44.50
2018-09-27T15:06:35.579Z,43.90
2018-09-27T15:09:06.365Z,44.40
2018-09-27T15:11:35.542Z,43.90
2018-09-27T15:14:03.652Z,44.80
2018-09-27T15:16:31.705Z,44.10
2018-09-27T15:18:59.795Z,44.20
2018-09-27T15:21:28.105Z,44.20
2018-09-27T15:23:56.342Z,44.00
2018-09-27T15:26:24.514Z,43.70
2018-09-27T15:28:52.847Z,44.50
2018-09-27T15:31:21.926Z,44.20
2018-09-27T15:33:51.193Z,44.70
2018-09-27T15:36:20.385Z,45.00
2018-09-27T15:38:49.527Z,44.90
2018-09-27T15:41:18.712Z,44.70
2018-09-27T15:43:47.820Z,45.30
2018-09-27T15:46:16.952Z,45.40
2018-09-27T15:48:46.215Z,45.80
2018-09-27T15:51:15.301Z,45.90
2018-09-27T15:53:44.296Z,45.90
2018-09-27T15:56:13.567Z,46.70
2018-09-27T15:58:42.986Z,46.60
2018-09-27T16:01:11.956Z,47.40
2018-09-27T16:03:40.970Z,47.00
2018-09-27T16:06:10.185Z,47.20
2018-09-27T16:08:40.335Z,46.80
2018-09-27T16:11:09.522Z,47.30
2018-09-27T16:13:38.598Z,47.30
2018-09-27T16:16:07.906Z,47.20
2018-09-27T16:18:36.125Z,47.10
2018-09-27T16:21:04.216Z,47.00
2018-09-27T16:23:32.498Z,47.10
2018-09-27T16:26:00.672Z,47.10
2018-09-27T16:28:28.811Z,47.20
2018-09-27T16:30:57.087Z,47.40
2018-09-27T16:33:26.343Z,47.40
2018-09-27T16:35:55.543Z,47.50
2018-09-27T16:38:24.721Z,47.40
2018-09-27T16:40:53.882Z,47.10
2018-09-27T16:43:22.046Z,47.40
2018-09-27T16:45:51.090Z,47.50
2018-09-27T16:48:19.317Z,47.80
2018-09-27T16:50:47.463Z,48.20
2018-09-27T16:53:15.661Z,48.40
2018-09-27T16:55:44.804Z,48.30
2018-09-27T16:58:13.898Z,48.30
2018-09-27T17:00:43.170Z,48.10
2018-09-27T17:03:12.189Z,48.70
2018-09-27T17:05:41.198Z,48.40
2018-09-27T17:08:10.267Z,48.40
2018-09-27T17:10:39.466Z,48.60
2018-09-27T17:13:08.657Z,48.50
2018-09-27T17:15:37.882Z,48.00
2018-09-27T17:18:07.159Z,48.20
2018-09-27T17:20:36.382Z,48.20
2018-09-27T17:23:05.538Z,48.10
2018-09-27T17:25:34.693Z,48.20
2018-09-27T17:28:03.783Z,48.00
2018-09-27T17:30:32.850Z,48.00
2018-09-27T17:33:01.866Z,47.80
2018-09-27T17:41:36.641Z,47.60
2018-09-27T17:44:05.630Z,47.80
2018-09-27T17:46:34.814Z,47.60
2018-09-27T17:49:05.264Z,47.60
2018-09-27T17:51:34.288Z,47.90
2018-09-27T17:54:03.733Z,48.00
2018-09-27T17:56:33.913Z,48.70
2018-09-27T17:59:03.823Z,49.30
2018-09-27T18:01:32.655Z,49.90
2018-09-27T18:04:02.336Z,49.90
2018-09-27T18:06:32.620Z,49.30
2018-09-27T18:09:02.041Z,49.80
2018-09-27T18:11:32.194Z,50.80
2018-09-27T18:16:24.359Z,50.20
2018-09-27T18:18:53.749Z,50.60
2018-09-27T18:21:22.849Z,50.20
2018-09-27T18:23:51.986Z,50.20
2018-09-27T18:26:21.074Z,49.90
2018-09-27T18:28:50.168Z,50.20
2018-09-27T18:31:19.211Z,49.40
2018-09-27T18:33:48.186Z,49.40
2018-09-27T18:36:17.136Z,50.40
2018-09-27T18:38:46.274Z,50.40
2018-09-27T18:41:15.343Z,50.60
2018-09-27T18:43:44.508Z,50.90
2018-09-27T18:46:13.612Z,51.20
2018-09-27T18:48:42.668Z,50.90
2018-09-27T18:51:11.630Z,50.50
2018-09-27T18:53:40.935Z,50.40
2018-09-27T18:56:10.004Z,50.10
2018-09-27T18:58:39.093Z,49.80
2018-09-27T19:01:08.147Z,50.20
2018-09-27T19:03:37.233Z,50.20
2018-09-27T19:06:06.376Z,50.40
2018-09-27T19:08:35.508Z,50.60
2018-09-27T19:11:04.630Z,51.00
2018-09-27T19:13:33.788Z,51.40
2018-09-27T19:16:02.873Z,51.80
2018-09-27T19:18:31.840Z,52.10
2018-09-27T19:21:00.969Z,51.90
2018-09-27T19:23:30.128Z,51.60
2018-09-27T19:25:59.228Z,51.90
2018-09-27T19:30:31.547Z,52.00
2018-09-27T19:33:00.648Z,51.80
2018-09-27T19:35:29.647Z,51.90
2018-09-27T19:37:58.707Z,51.70
2018-09-27T19:40:27.834Z,51.70
2018-09-27T19:42:56.907Z,51.50
2018-09-27T19:45:26.012Z,51.70
2018-09-27T19:47:55.089Z,51.90
2018-09-27T19:50:24.246Z,51.70
2018-09-27T19:52:53.379Z,51.70
2018-09-27T19:55:22.488Z,51.50
2018-09-27T19:57:51.567Z,51.90
2018-09-27T20:00:20.751Z,51.60
2018-09-27T20:02:49.910Z,51.40
2018-09-27T20:05:18.988Z,51.90
2018-09-27T20:07:48.067Z,52.10
2018-09-27T20:10:17.156Z,52.20
2018-09-27T20:12:46.258Z,52.40
2018-09-27T20:15:15.397Z,52.40
2018-09-27T20:17:44.528Z,52.30
2018-09-27T20:20:13.737Z,52.50
2018-09-27T20:22:42.824Z,52.70
2018-09-27T20:25:11.816Z,52.60
2018-09-27T20:27:40.836Z,52.60
2018-09-27T20:30:09.897Z,52.30
2018-09-27T20:32:39.007Z,52.60
2018-09-27T20:35:08.105Z,52.90
2018-09-27T20:37:37.102Z,52.80
2018-09-27T20:40:06.239Z,53.70
2018-09-27T20:42:35.276Z,53.10
2018-09-27T20:45:04.459Z,53.50
2018-09-27T20:47:33.723Z,53.50
2018-09-27T20:50:02.651Z,53.70
2018-09-27T20:52:31.792Z,53.70
2018-09-27T20:55:00.755Z,53.40
2018-09-27T20:57:29.846Z,53.40
2018-09-27T20:59:58.916Z,53.80
2018-09-27T21:02:28.040Z,53.90
2018-09-27T21:04:57.159Z,54.20
2018-09-27T21:07:26.348Z,53.90
2018-09-27T21:09:55.432Z,54.00
2018-09-27T21:12:24.408Z,53.50
2018-09-27T21:14:53.405Z,53.60
2018-09-27T21:17:22.528Z,53.50
2018-09-27T21:19:51.676Z,53.40
2018-09-27T21:22:20.787Z,53.50
2018-09-27T21:24:49.892Z,53.60
2018-09-27T21:27:18.925Z,54.00
2018-09-27T21:29:47.972Z,53.90
2018-09-27T21:32:17.049Z,54.00
2018-09-27T21:34:46.215Z,54.10
2018-09-27T21:37:15.449Z,54.00
2018-09-27T21:39:44.762Z,54.00
2018-09-27T21:42:13.859Z,54.20
2018-09-27T21:44:42.941Z,54.40
2018-09-27T21:47:11.943Z,55.00
2018-09-27T21:49:41.075Z,55.70
2018-09-27T21:52:10.150Z,56.10
2018-09-27T21:54:39.241Z,56.30
2018-09-27T21:57:08.328Z,56.80
2018-09-27T21:59:37.421Z,57.00
2018-09-27T22:02:06.677Z,57.30
2018-09-27T22:04:35.922Z,56.20
2018-09-27T22:07:05.007Z,56.00
2018-09-27T22:09:33.984Z,56.00
2018-09-27T22:12:03.000Z,56.10
2018-09-27T22:14:32.018Z,56.60
2018-09-27T22:17:01.000Z,56.30
2018-09-27T22:19:29.969Z,56.20
2018-09-27T22:21:58.968Z,56.20
2018-09-27T22:24:28.047Z,56.90
2018-09-27T22:26:57.145Z,57.00
2018-09-27T22:29:26.148Z,57.00
2018-09-27T22:31:55.131Z,57.20
2018-09-27T22:34:24.224Z,57.40
2018-09-27T22:36:53.323Z,57.10
2018-09-27T22:39:22.323Z,57.20
2018-09-27T22:41:51.403Z,57.50
2018-09-27T22:44:20.494Z,57.60
2018-09-27T22:46:49.600Z,57.70
2018-09-27T22:49:18.593Z,57.60
2018-09-27T22:51:47.705Z,57.90
2018-09-27T22:54:16.675Z,57.50
2018-09-27T22:56:45.663Z,57.70
2018-09-27T22:59:14.663Z,57.90
2018-09-27T23:01:43.633Z,58.00
2018-09-27T23:04:12.664Z,57.80
2018-09-27T23:06:41.672Z,58.10
2018-09-27T23:09:10.724Z,58.00
2018-09-27T23:11:39.839Z,57.70
2018-09-27T23:14:08.960Z,57.50
2018-09-27T23:16:38.021Z,57.60
2018-09-27T23:19:07.282Z,57.90
2018-09-27T23:21:36.297Z,58.10
2018-09-27T23:24:05.406Z,58.00
2018-09-27T23:26:34.432Z,58.00
2018-09-27T23:29:03.487Z,58.20
2018-09-27T23:31:32.592Z,58.20
2018-09-27T23:34:01.684Z,58.70
2018-09-27T23:36:30.776Z,58.70
2018-09-27T23:38:59.744Z,59.40
2018-09-27T23:41:28.764Z,59.30
2018-09-27T23:43:57.868Z,60.00
2018-09-27T23:46:26.948Z,60.00
2018-09-27T23:48:56.056Z,59.80
2018-09-27T23:51:25.135Z,60.00
2018-09-27T23:53:54.121Z,60.10
2018-09-27T23:56:23.108Z,61.00
2018-09-27T23:58:52.139Z,61.80
